Main page
METAR-TAF:

METAR-TAF

Airports :

Zenata – Messali El Hadj Airport

Tlemcen, Algeria

latitude: 35-01N, longitude: 001-28W, elevation: 247 m

Current weather observation

The report was made 40 minutes ago, at 05:00 UTC
Calm wind
Temperature 19°C
Humidity 78%
Pressure 1017 hPa
Visibility 10 km or more
no clouds below 1500 m and no cumulonimbus

METAR: DAON 240500Z 00000KT CAVOK 19/15 Q1017

Time: 06:40 (05:40 UTC)

Forecast

The report was made 40 minutes ago, at 05:00 UTC
Forecast valid from 24 at 06 UTC to 25 at 06 UTC
Wind 2 kt from variable directions
Visibility 10 km or more
no clouds below 1500 m and no cumulonimbus
Probability 30% :
Temporary
from 24 at 06 UTC to 24 at 08 UTC
Visibility: 4000 m
Broken clouds at a height of 1300 ft
mist
Becoming
from 24 at 09 UTC to 24 at 12 UTC
Wind 15 kt from the North
Becoming
from 24 at 19 UTC to 24 at 22 UTC
Wind 2 kt from variable directions

TAF: DAON 240500Z 2406/2506 VRB02KT CAVOK PROB30 TEMPO 2406/2408 4000 BR BKN013 BECMG 2409/2412 36015KT BECMG 2419/2422 VRB02KT

Weather observations and forecasts of more than 4000 airports (METAR and TAF reports).

The available stations are represented by yellow and red dots on the map.

Hover mouse over dot to see the name of the station.

Then click to see weather observations and forecasts.

To change the map : click on the green buttons with a black cross to zoom in, on the green button with a dash to zoom out, or on the green arrows for adjacent maps.


METAR-TAF: